Time;durP1;ratioP1;P1;durP2;ratioP2;P2;SDS_P1;SDS_P2;PMS_P1;PMS_P2;Temp;Humidity;BMP_temperature;BMP_pressure;BME280_temperature;BME280_humidity;BME280_pressure;Samples;Min_cycle;Max_cycle;Signal;HPM_P1;HPM_P2
2023/08/20 00:00:45;;;;;;;7.30;3.30;;;;;;;19.44;84.88;100928.34;5025315;28;20032;-61
2023/08/20 00:03:12;;;;;;;4.57;3.33;;;;;;;19.29;85.48;100923.66;5025314;28;20032;-61
2023/08/20 00:05:38;;;;;;;4.32;3.28;;;;;;;19.25;85.88;100927.34;5025159;28;20030;-61
2023/08/20 00:08:04;;;;;;;5.10;3.05;;;;;;;19.25;85.68;100922.06;5025299;28;20045;-61
2023/08/20 00:10:30;;;;;;;5.30;3.35;;;;;;;19.04;86.46;100920.09;5025321;28;20026;-61
2023/08/20 00:12:56;;;;;;;5.78;3.42;;;;;;;18.95;87.27;100917.81;5024845;28;20049;-61
2023/08/20 00:15:26;;;;;;;3.60;3.20;;;;;;;18.77;88.70;100914.91;5025124;28;20022;-62
2023/08/20 00:17:52;;;;;;;5.00;2.55;;;;;;;18.64;89.84;100906.59;5025114;28;20469;-62
2023/08/20 00:20:18;;;;;;;5.93;2.97;;;;;;;18.62;90.13;100912.81;5025038;28;20022;-62
2023/08/20 00:22:45;;;;;;;4.55;2.63;;;;;;;18.56;90.78;100903.38;5025234;28;20026;-61
2023/08/20 00:25:15;;;;;;;8.60;3.83;;;;;;;18.55;91.11;100915.66;5024654;28;20032;-61
2023/08/20 00:27:41;;;;;;;3.15;2.85;;;;;;;18.47;91.96;100904.53;5024896;28;20304;-62
2023/08/20 00:30:08;;;;;;;4.95;3.33;;;;;;;18.37;92.70;100901.34;5025083;28;20053;-60
2023/08/20 00:32:33;;;;;;;5.25;3.97;;;;;;;18.39;92.89;100899.53;5024584;28;20026;-61
2023/08/20 00:34:59;;;;;;;3.58;2.85;;;;;;;18.31;93.83;100889.28;5024863;28;20026;-60
2023/08/20 00:37:25;;;;;;;6.00;3.63;;;;;;;18.28;94.13;100909.53;5024819;28;20029;-60
2023/08/20 00:39:50;;;;;;;5.53;3.78;;;;;;;18.26;94.28;100903.50;5024889;28;20018;-61
2023/08/20 00:42:16;;;;;;;5.32;4.07;;;;;;;18.27;94.46;100894.69;5024795;28;20176;-61
2023/08/20 00:44:44;;;;;;;3.05;2.70;;;;;;;18.30;94.59;100902.47;5024816;28;20018;-61
2023/08/20 00:47:10;;;;;;;4.70;3.00;;;;;;;18.19;95.45;100901.06;5024800;28;20018;-61
2023/08/20 00:49:36;;;;;;;6.25;3.45;;;;;;;18.19;95.70;100905.47;5024932;28;20022;-61
2023/08/20 00:52:03;;;;;;;6.65;3.42;;;;;;;18.23;95.85;100907.06;5024844;28;20033;-61
2023/08/20 00:54:29;;;;;;;3.47;2.67;;;;;;;18.21;95.92;100907.13;5024638;28;20022;-60
2023/08/20 00:56:55;;;;;;;4.90;3.15;;;;;;;18.13;96.56;100903.03;5024967;28;20029;-61
2023/08/20 00:59:20;;;;;;;5.55;3.30;;;;;;;18.14;96.67;100897.72;5025013;28;20026;-60
2023/08/20 01:01:46;;;;;;;7.72;4.07;;;;;;;18.12;97.33;100909.19;5024561;28;20093;-61
2023/08/20 01:04:11;;;;;;;7.00;3.67;;;;;;;18.06;97.61;100908.47;5024759;28;20025;-61
2023/08/20 01:06:58;;;;;;;4.80;3.22;;;;;;;18.07;98.23;100912.78;5024659;28;20029;-62
2023/08/20 01:09:51;;;;;;;6.22;3.13;;;;;;;18.02;98.68;100916.50;5024377;28;20033;-61
2023/08/20 01:12:19;;;;;;;4.57;2.97;;;;;;;17.99;99.14;100916.59;5024593;28;20033;-62
2023/08/20 01:14:45;;;;;;;13.45;3.67;;;;;;;17.93;99.44;100907.13;5024530;28;20042;-62
2023/08/20 01:17:10;;;;;;;5.35;3.80;;;;;;;17.90;100.00;100915.09;5024615;28;20032;-62
2023/08/20 01:19:36;;;;;;;4.72;3.40;;;;;;;17.91;100.00;100911.53;5024378;28;20090;-64
2023/08/20 01:22:07;;;;;;;4.20;3.15;;;;;;;17.92;100.00;100918.53;5024478;28;20073;-61
2023/08/20 01:25:00;;;;;;;6.40;3.58;;;;;;;17.89;100.00;100908.97;5024440;28;20060;-60
2023/08/20 01:27:45;;;;;;;5.15;3.67;;;;;;;17.87;100.00;100912.56;5024250;28;20030;-61
2023/08/20 01:30:12;;;;;;;7.28;3.75;;;;;;;17.84;100.00;100908.28;5024221;28;20040;-62
2023/08/20 01:32:41;;;;;;;6.78;3.78;;;;;;;17.84;100.00;100909.13;5024279;28;20117;-62
2023/08/20 01:35:16;;;;;;;3.15;2.55;;;;;;;17.83;100.00;100907.41;5024492;28;20037;-62
2023/08/20 01:37:42;;;;;;;7.18;4.05;;;;;;;17.80;100.00;100910.13;5024233;28;20025;-60
2023/08/20 01:40:10;;;;;;;5.60;4.18;;;;;;;17.82;100.00;100905.69;5026497;28;20110;-64
2023/08/20 01:42:40;;;;;;;6.75;3.60;;;;;;;17.83;100.00;100906.53;5026920;28;20026;-62
2023/08/20 01:45:06;;;;;;;0.38;0.38;;;;;;;17.84;100.00;100892.53;5027866;28;20026;-62
2023/08/20 01:47:35;;;;;;;0.20;0.20;;;;;;;17.79;100.00;100903.16;5027626;28;20022;-62
2023/08/20 01:50:00;;;;;;;1.35;1.25;;;;;;;17.76;100.00;100897.13;5028078;28;20038;-62
2023/08/20 01:52:26;;;;;;;0.20;0.20;;;;;;;17.75;100.00;100891.03;5027819;28;20371;-62
2023/08/20 01:54:53;;;;;;;0.20;0.20;;;;;;;17.76;100.00;100877.00;5027785;28;20041;-62
2023/08/20 01:57:18;;;;;;;0.20;0.20;;;;;;;17.79;100.00;100884.78;5027740;28;20037;-62
2023/08/20 01:59:44;;;;;;;0.10;0.10;;;;;;;17.70;100.00;100877.16;5027720;28;20030;-62
2023/08/20 02:02:09;;;;;;;0.30;0.30;;;;;;;17.72;100.00;100880.63;5027892;28;20022;-61
2023/08/20 02:04:34;;;;;;;0.45;0.45;;;;;;;17.69;100.00;100875.47;5026961;28;20050;-63
2023/08/20 02:07:00;;;;;;;0.73;0.65;;;;;;;17.70;100.00;100879.78;5027542;28;20083;-62
2023/08/20 02:09:25;;;;;;;0.20;0.20;;;;;;;17.65;100.00;100869.44;5027299;28;20032;-61
2023/08/20 02:11:51;;;;;;;0.20;0.20;;;;;;;17.78;100.00;100869.06;5027423;28;20022;-63
2023/08/20 02:14:17;;;;;;;0.20;0.20;;;;;;;17.75;100.00;100859.50;5027227;28;20045;-61
2023/08/20 02:16:43;;;;;;;0.20;0.20;;;;;;;17.76;100.00;100877.00;5027355;28;20429;-63
2023/08/20 02:19:08;;;;;;;0.20;0.20;;;;;;;17.77;100.00;100873.47;5027326;28;20026;-62
2023/08/20 02:21:34;;;;;;;0.20;0.20;;;;;;;17.70;100.00;100853.53;5027261;28;20025;-62
2023/08/20 02:23:59;;;;;;;0.20;0.20;;;;;;;17.74;100.00;100857.81;5027392;28;20024;-62
2023/08/20 02:26:25;;;;;;;0.20;0.20;;;;;;;17.74;100.00;100873.56;5027077;28;20022;-62
2023/08/20 02:28:50;;;;;;;1.52;1.30;;;;;;;17.73;100.00;100869.22;5027014;28;20046;-62
2023/08/20 02:31:16;;;;;;;0.20;0.20;;;;;;;17.76;100.00;100865.63;5026943;28;20014;-62
2023/08/20 02:33:41;;;;;;;0.20;0.20;;;;;;;17.76;100.00;100860.38;5027210;28;20026;-62
2023/08/20 02:36:06;;;;;;;0.20;0.20;;;;;;;17.78;100.00;100859.41;5026850;28;20030;-63
2023/08/20 02:38:32;;;;;;;0.68;0.68;;;;;;;17.79;100.00;100862.91;5026805;28;20326;-63
2023/08/20 02:40:57;;;;;;;1.67;1.58;;;;;;;17.78;100.00;100856.78;5026874;28;20064;-63
2023/08/20 02:43:23;;;;;;;0.30;0.30;;;;;;;17.81;100.00;100867.19;5026958;28;20022;-64
2023/08/20 02:45:49;;;;;;;0.20;0.20;;;;;;;17.79;100.00;100865.53;5026708;28;20081;-63
2023/08/20 02:48:14;;;;;;;0.30;0.30;;;;;;;17.82;100.00;100870.69;5026848;28;20030;-63
2023/08/20 02:50:40;;;;;;;0.20;0.20;;;;;;;17.80;100.00;100868.09;5026746;28;20056;-63
2023/08/20 02:53:06;;;;;;;0.20;0.20;;;;;;;17.86;100.00;100866.22;5026243;28;20026;-62
2023/08/20 02:55:33;;;;;;;0.10;0.10;;;;;;;17.86;100.00;100867.03;5026584;28;20454;-63
2023/08/20 02:57:59;;;;;;;0.30;0.30;;;;;;;17.87;100.00;100874.03;5026331;28;20053;-63
2023/08/20 03:00:24;;;;;;;1.75;0.73;;;;;;;17.85;100.00;100873.22;5026712;28;20022;-62
2023/08/20 03:02:50;;;;;;;0.20;0.20;;;;;;;17.91;100.00;100873.00;5026458;28;20029;-63
2023/08/20 03:05:15;;;;;;;0.20;0.20;;;;;;;17.89;100.00;100868.72;5026470;28;20314;-63
2023/08/20 03:07:40;;;;;;;0.88;0.85;;;;;;;17.88;100.00;100867.00;5026494;28;20028;-63
2023/08/20 03:10:06;;;;;;;0.20;0.20;;;;;;;17.92;100.00;100873.88;5026400;28;20098;-63
2023/08/20 03:12:32;;;;;;;0.30;0.30;;;;;;;17.98;100.00;100886.81;5026257;28;20084;-63
2023/08/20 03:14:58;;;;;;;0.20;0.20;;;;;;;18.00;100.00;100887.66;5026344;28;20566;-63
2023/08/20 03:17:24;;;;;;;0.85;0.85;;;;;;;17.96;100.00;100872.88;5026429;28;20049;-62
2023/08/20 03:20:00;;;;;;;0.20;0.20;;;;;;;18.03;100.00;100884.91;5024720;28;20018;-61
2023/08/20 03:22:26;;;;;;;0.20;0.20;;;;;;;18.03;100.00;100884.03;5026229;28;20018;-62
2023/08/20 03:24:53;;;;;;;0.30;0.30;;;;;;;18.03;100.00;100873.53;5026139;28;20056;-62
2023/08/20 03:27:18;;;;;;;0.20;0.20;;;;;;;18.04;100.00;100870.00;5026019;28;20029;-61
2023/08/20 03:29:44;;;;;;;0.20;0.20;;;;;;;18.04;100.00;100868.22;5025925;28;20026;-62
2023/08/20 03:32:10;;;;;;;0.20;0.20;;;;;;;18.07;100.00;100865.50;5025824;28;20021;-63
2023/08/20 03:34:36;;;;;;;0.45;0.45;;;;;;;18.03;100.00;100856.03;5025963;28;20026;-62
2023/08/20 03:37:01;;;;;;;0.50;0.50;;;;;;;18.02;100.00;100856.91;5025848;28;20021;-62
2023/08/20 03:39:27;;;;;;;0.20;0.20;;;;;;;18.02;100.00;100872.66;5025742;28;20037;-62
2023/08/20 03:41:53;;;;;;;0.40;0.40;;;;;;;18.02;100.00;100874.47;5025648;28;20022;-62
2023/08/20 03:44:18;;;;;;;0.20;0.20;;;;;;;18.00;100.00;100871.88;5025507;28;20105;-62
2023/08/20 03:46:44;;;;;;;0.20;0.20;;;;;;;18.06;100.00;100876.94;5025510;28;20026;-62
2023/08/20 03:49:10;;;;;;;0.20;0.20;;;;;;;18.04;100.00;100878.75;5025577;28;20033;-62
2023/08/20 03:51:35;;;;;;;0.20;0.20;;;;;;;18.06;100.00;100884.81;5025605;28;20022;-62
2023/08/20 03:54:01;;;;;;;0.20;0.20;;;;;;;18.01;100.00;100876.22;5025537;28;20453;-61
2023/08/20 03:56:26;;;;;;;0.90;0.73;;;;;;;18.03;100.00;100878.78;5025607;28;20048;-62
2023/08/20 03:58:52;;;;;;;0.95;0.95;;;;;;;18.04;100.00;100880.50;5025599;28;20029;-62
2023/08/20 04:01:18;;;;;;;0.65;0.65;;;;;;;18.00;100.00;100878.88;5025163;28;20498;-62
2023/08/20 04:03:45;;;;;;;0.20;0.20;;;;;;;18.02;100.00;100877.91;5024972;28;20036;-62
2023/08/20 04:06:11;;;;;;;0.20;0.20;;;;;;;18.03;100.00;100884.03;5025520;28;20046;-62
2023/08/20 04:08:36;;;;;;;0.20;0.20;;;;;;;18.03;100.00;100895.44;5025054;28;20026;-62
2023/08/20 04:11:03;;;;;;;0.20;0.20;;;;;;;18.05;100.00;100900.63;5025291;28;20022;-62
2023/08/20 04:13:28;;;;;;;0.20;0.20;;;;;;;18.06;100.00;100891.81;5025115;28;20050;-62
2023/08/20 04:15:54;;;;;;;0.45;0.45;;;;;;;18.11;100.00;100894.31;5025212;28;20025;-62
2023/08/20 04:18:19;;;;;;;0.20;0.20;;;;;;;18.14;100.00;100892.47;5025048;28;20521;-62
2023/08/20 04:20:44;;;;;;;0.20;0.20;;;;;;;18.16;100.00;100889.81;5025343;28;20022;-61
2023/08/20 04:23:10;;;;;;;0.20;0.20;;;;;;;18.16;100.00;100887.16;5024860;28;20018;-62
2023/08/20 04:25:35;;;;;;;0.30;0.30;;;;;;;18.14;100.00;100891.59;5025050;28;20044;-62
2023/08/20 04:28:01;;;;;;;0.65;0.65;;;;;;;18.16;100.00;100888.00;5025117;28;20022;-62
2023/08/20 04:30:26;;;;;;;0.20;0.20;;;;;;;18.19;100.00;100885.31;5025157;28;20021;-62
2023/08/20 04:32:51;;;;;;;0.20;0.20;;;;;;;18.16;100.00;100887.16;5024710;28;20065;-62
2023/08/20 04:35:17;;;;;;;0.20;0.20;;;;;;;18.19;100.00;100887.94;5024702;28;20026;-62
2023/08/20 04:37:42;;;;;;;0.20;0.20;;;;;;;18.23;100.00;100885.22;5025014;28;20025;-62
2023/08/20 04:40:08;;;;;;;0.30;0.30;;;;;;;18.25;100.00;100894.75;5024607;28;20028;-62
2023/08/20 04:42:33;;;;;;;0.38;0.38;;;;;;;18.27;100.00;100894.69;5024944;28;20022;-62
2023/08/20 04:44:59;;;;;;;0.20;0.20;;;;;;;18.30;100.00;100891.97;5025099;28;20053;-62
2023/08/20 04:47:25;;;;;;;0.20;0.20;;;;;;;18.30;100.00;100897.22;5025124;28;20048;-61
2023/08/20 04:49:50;;;;;;;0.68;0.68;;;;;;;18.29;100.00;100891.09;5024886;28;20026;-62
2023/08/20 04:52:15;;;;;;;0.20;0.20;;;;;;;18.35;100.00;100897.94;5024678;28;20026;-63
2023/08/20 04:54:41;;;;;;;0.80;0.80;;;;;;;18.27;100.00;100885.06;5024736;28;20492;-62
2023/08/20 04:57:06;;;;;;;0.20;0.20;;;;;;;18.36;100.00;100890.88;5024682;28;20425;-62
2023/08/20 04:59:32;;;;;;;0.20;0.20;;;;;;;18.37;100.00;100901.34;5024746;28;20466;-62
2023/08/20 05:01:57;;;;;;;0.20;0.20;;;;;;;18.35;100.00;100895.31;5024661;28;20581;-62
2023/08/20 05:04:23;;;;;;;0.10;0.10;;;;;;;18.37;100.00;100888.22;5024762;28;20030;-63
2023/08/20 05:06:48;;;;;;;0.30;0.30;;;;;;;18.34;100.00;100890.94;5024387;28;20053;-62
2023/08/20 05:09:15;;;;;;;0.30;0.30;;;;;;;18.38;100.00;100891.72;5024232;28;20036;-62
2023/08/20 05:11:41;;;;;;;0.20;0.20;;;;;;;18.31;100.00;100886.66;5024478;28;20026;-62
2023/08/20 05:14:06;;;;;;;0.20;0.20;;;;;;;18.35;100.00;100894.44;5025135;28;20042;-62
2023/08/20 05:16:31;;;;;;;0.20;0.20;;;;;;;18.35;100.00;100894.44;5028523;28;20345;-62
2023/08/20 05:18:57;;;;;;;0.20;0.20;;;;;;;18.34;100.00;100909.34;5028341;28;20496;-62
2023/08/20 05:21:22;;;;;;;0.40;0.40;;;;;;;18.29;100.00;100898.97;5027017;28;20032;-63
2023/08/20 05:23:47;;;;;;;0.20;0.20;;;;;;;18.35;100.00;100899.69;5028239;28;20022;-63
2023/08/20 05:26:13;;;;;;;0.20;0.20;;;;;;;18.38;100.00;100907.47;5028192;28;20017;-63
2023/08/20 05:28:38;;;;;;;0.17;0.17;;;;;;;18.43;100.00;100905.56;5028219;28;20022;-63
2023/08/20 05:31:04;;;;;;;0.20;0.20;;;;;;;18.44;100.00;100904.63;5028036;28;20022;-62
2023/08/20 05:33:29;;;;;;;1.27;1.10;;;;;;;18.47;100.00;100906.31;5028169;28;20467;-62
2023/08/20 05:35:55;;;;;;;7.03;2.05;;;;;;;18.47;100.00;100903.69;5028099;28;20025;-63
2023/08/20 05:38:20;;;;;;;0.13;0.13;;;;;;;18.45;100.00;100906.38;5027790;28;20068;-63
2023/08/20 05:40:45;;;;;;;0.20;0.20;;;;;;;18.42;100.00;100895.94;5028078;28;20022;-63
2023/08/20 05:43:11;;;;;;;0.20;0.20;;;;;;;18.45;100.00;100901.97;5027987;28;20018;-64
2023/08/20 05:45:36;;;;;;;0.20;0.20;;;;;;;18.46;100.00;100902.84;5027866;28;20033;-64
2023/08/20 05:48:02;;;;;;;0.15;0.15;;;;;;;18.50;100.00;100900.97;5027927;28;20101;-64
2023/08/20 05:50:27;;;;;;;0.20;0.20;;;;;;;18.48;100.00;100894.88;5026609;28;20029;-63
2023/08/20 05:52:53;;;;;;;1.73;0.90;;;;;;;18.53;100.00;100896.44;5027775;28;20044;-64
2023/08/20 05:55:18;;;;;;;0.10;0.10;;;;;;;18.53;100.00;100890.34;5027570;28;20030;-64
2023/08/20 05:57:44;;;;;;;0.17;0.17;;;;;;;18.52;100.00;100884.22;5027646;28;20021;-63
2023/08/20 06:00:10;;;;;;;3.60;2.35;;;;;;;18.54;100.00;100884.16;5027714;28;20109;-63
2023/08/20 06:02:36;;;;;;;0.20;0.20;;;;;;;18.50;100.00;100883.41;5027809;28;20018;-62
2023/08/20 06:05:04;;;;;;;0.22;0.22;;;;;;;18.51;100.00;100884.28;5027760;28;20028;-63
2023/08/20 06:07:30;;;;;;;0.20;0.20;;;;;;;18.54;100.00;100879.78;5027656;28;20068;-63
2023/08/20 06:09:56;;;;;;;0.28;0.28;;;;;;;18.55;100.00;100881.47;5026938;28;20022;-63
2023/08/20 06:12:22;;;;;;;1.38;1.27;;;;;;;18.56;100.00;100891.06;5027322;28;20073;-63
2023/08/20 06:14:47;;;;;;;0.20;0.20;;;;;;;18.60;100.00;100888.34;5027497;28;20030;-63
2023/08/20 06:17:13;;;;;;;0.60;0.60;;;;;;;18.53;100.00;100869.31;5027037;28;20037;-62
2023/08/20 06:19:38;;;;;;;0.20;0.20;;;;;;;18.60;100.00;100876.06;5027192;28;20026;-62
2023/08/20 06:22:04;;;;;;;0.20;0.20;;;;;;;18.60;100.00;100875.19;5027376;28;20049;-62
2023/08/20 06:24:29;;;;;;;0.20;0.20;;;;;;;18.60;100.00;100872.56;5026642;28;20045;-62
2023/08/20 06:26:55;;;;;;;0.40;0.40;;;;;;;18.54;100.00;100871.88;5026857;28;20045;-62
2023/08/20 06:29:21;;;;;;;0.35;0.35;;;;;;;18.56;100.00;100875.31;5027272;28;20575;-62
2023/08/20 06:31:48;;;;;;;0.20;0.20;;;;;;;18.60;100.00;100880.44;5026890;28;20101;-62
2023/08/20 06:34:13;;;;;;;0.30;0.30;;;;;;;18.62;100.00;100882.13;5027044;28;20056;-62
2023/08/20 06:36:39;;;;;;;0.32;0.32;;;;;;;18.64;100.00;100876.81;5027110;28;20077;-62
2023/08/20 06:39:04;;;;;;;0.20;0.20;;;;;;;18.65;100.00;100871.50;5026743;28;20017;-62
2023/08/20 06:41:29;;;;;;;0.20;0.20;;;;;;;18.71;100.00;100878.31;5026700;28;20022;-62
2023/08/20 06:43:55;;;;;;;0.50;0.40;;;;;;;18.67;100.00;100881.97;5026643;28;20029;-63
2023/08/20 06:46:20;;;;;;;0.20;0.20;;;;;;;18.70;100.00;100880.09;5026867;28;20056;-63
2023/08/20 06:48:46;;;;;;;0.20;0.20;;;;;;;18.72;100.00;100887.94;5026849;28;20030;-62
2023/08/20 06:51:12;;;;;;;0.20;0.20;;;;;;;18.69;100.00;100888.03;5026430;28;20017;-62
2023/08/20 06:53:38;;;;;;;0.35;0.35;;;;;;;18.72;100.00;100887.94;5026605;28;20033;-62
2023/08/20 06:56:04;;;;;;;0.20;0.20;;;;;;;18.75;100.00;100897.47;5025492;28;20053;-62
2023/08/20 06:58:29;;;;;;;0.20;0.20;;;;;;;18.74;100.00;100891.34;5026511;28;20022;-62
2023/08/20 07:00:55;;;;;;;0.20;0.20;;;;;;;18.77;100.00;100891.25;5026686;28;20021;-62
2023/08/20 07:03:20;;;;;;;0.85;0.85;;;;;;;18.80;100.00;100888.50;5026337;28;20022;-61
2023/08/20 07:05:46;;;;;;;0.57;0.57;;;;;;;18.71;100.00;100886.19;5026265;28;20026;-61
2023/08/20 07:08:11;;;;;;;0.30;0.30;;;;;;;18.74;100.00;100901.88;5026297;28;20037;-61
2023/08/20 07:10:37;;;;;;;0.82;0.82;;;;;;;18.73;100.00;100899.28;5026064;28;20189;-61
2023/08/20 07:13:02;;;;;;;0.20;0.20;;;;;;;18.70;100.00;100900.28;5025981;28;20105;-61
2023/08/20 07:15:28;;;;;;;0.20;0.20;;;;;;;18.75;100.00;100900.09;5026177;28;20026;-61
2023/08/20 07:17:53;;;;;;;0.50;0.50;;;;;;;18.79;100.00;100904.34;5026029;28;20486;-61
2023/08/20 07:20:19;;;;;;;0.10;0.10;;;;;;;18.79;100.00;100906.97;5026133;28;20026;-60
2023/08/20 07:22:44;;;;;;;0.13;0.13;;;;;;;18.79;100.00;100909.59;5025800;28;20085;-61
2023/08/20 07:25:09;;;;;;;2.53;1.38;;;;;;;18.80;100.00;100909.53;5025973;28;20026;-61
2023/08/20 07:27:35;;;;;;;0.32;0.30;;;;;;;18.78;100.00;100911.38;5025889;28;20097;-61
2023/08/20 07:30:00;;;;;;;0.40;0.40;;;;;;;18.73;100.00;100910.69;5025730;28;20049;-61
2023/08/20 07:32:26;;;;;;;0.50;0.50;;;;;;;18.72;100.00;100908.09;5025872;28;20029;-60
2023/08/20 07:34:51;;;;;;;4.22;0.57;;;;;;;18.68;100.00;100912.59;5025737;28;20030;-61
2023/08/20 07:37:16;;;;;;;0.20;0.20;;;;;;;18.68;100.00;100904.72;5024827;28;20113;-62
2023/08/20 07:39:42;;;;;;;0.20;0.20;;;;;;;18.71;100.00;100912.50;5025513;28;20025;-61
2023/08/20 07:42:07;;;;;;;0.60;0.60;;;;;;;18.73;100.00;100915.94;5025579;28;20018;-61
2023/08/20 07:44:33;;;;;;;0.32;0.32;;;;;;;18.67;100.00;100910.91;5025801;28;20072;-61
2023/08/20 07:46:58;;;;;;;0.20;0.20;;;;;;;18.60;100.00;100896.22;5025470;28;20041;-60
2023/08/20 07:49:24;;;;;;;0.20;0.20;;;;;;;18.67;100.00;100892.50;5025567;28;20025;-60
2023/08/20 07:51:52;;;;;;;2.30;2.20;;;;;;;18.81;100.00;100908.66;5025466;28;20018;-61
2023/08/20 07:54:17;;;;;;;0.20;0.20;;;;;;;18.83;100.00;100900.72;5025288;28;20030;-60
2023/08/20 07:56:43;;;;;;;0.40;0.40;;;;;;;18.84;100.00;100905.03;5025536;28;20022;-61
2023/08/20 07:59:08;;;;;;;0.32;0.32;;;;;;;18.80;100.00;100892.94;5025340;28;20084;-61
2023/08/20 08:01:34;;;;;;;0.20;0.20;;;;;;;18.94;100.00;100913.47;5025341;28;20018;-60
2023/08/20 08:03:59;;;;;;;1.08;1.08;;;;;;;18.92;100.00;100925.81;5024948;28;20061;-62
2023/08/20 08:06:24;;;;;;;0.10;0.10;;;;;;;18.86;100.00;100926.03;5025253;28;20018;-63
2023/08/20 08:08:50;;;;;;;0.20;0.20;;;;;;;18.80;100.00;100929.75;5025033;28;20025;-61
2023/08/20 08:11:15;;;;;;;0.20;0.20;;;;;;;18.74;100.00;100930.81;5025098;28;20030;-61
2023/08/20 08:13:40;;;;;;;0.20;0.20;;;;;;;18.73;100.00;100930.84;5024684;28;20042;-61
2023/08/20 08:16:06;;;;;;;0.20;0.20;;;;;;;18.75;100.00;100935.16;5024967;28;20478;-62
2023/08/20 08:18:31;;;;;;;0.20;0.20;;;;;;;18.73;100.00;100934.34;5025022;28;20037;-61
2023/08/20 08:20:57;;;;;;;0.40;0.40;;;;;;;18.73;100.00;100930.84;5025102;28;20026;-61
2023/08/20 08:23:22;;;;;;;0.32;0.32;;;;;;;18.70;100.00;100932.69;5024978;28;20080;-61
2023/08/20 08:25:48;;;;;;;0.20;0.20;;;;;;;18.60;100.00;100922.53;5024750;28;20030;-62
2023/08/20 08:28:13;;;;;;;0.40;0.40;;;;;;;18.61;100.00;100924.25;5025118;28;20100;-63
2023/08/20 08:30:40;;;;;;;1.02;1.02;;;;;;;18.56;100.00;100920.00;5024977;28;20060;-62
2023/08/20 08:33:05;;;;;;;0.93;0.52;;;;;;;18.61;100.00;100934.78;5024503;28;20053;-62
2023/08/20 08:35:31;;;;;;;0.20;0.20;;;;;;;18.62;100.00;100939.13;5024777;28;20014;-61
2023/08/20 08:37:57;;;;;;;0.63;0.63;;;;;;;18.62;100.00;100939.13;5024663;28;20079;-61
2023/08/20 08:40:27;;;;;;;5.93;1.60;;;;;;;18.60;100.00;100943.56;5024674;28;20033;-61
2023/08/20 08:42:54;;;;;;;0.65;0.65;;;;;;;18.56;100.00;100942.81;5024540;28;20082;-60
2023/08/20 08:45:20;;;;;;;2.42;1.25;;;;;;;18.55;100.00;100955.09;5024734;28;20030;-61
2023/08/20 08:47:47;;;;;;;0.65;0.65;;;;;;;18.52;100.00;100955.19;5024904;28;20018;-60
2023/08/20 08:50:12;;;;;;;0.28;0.28;;;;;;;18.51;100.00;100961.38;5027698;28;20022;-61
2023/08/20 08:52:39;;;;;;;13.52;2.05;;;;;;;18.41;100.00;100946.81;5028652;28;20026;-62
2023/08/20 08:55:08;;;;;;;0.25;0.25;;;;;;;18.49;100.00;100968.44;5028519;28;20018;-60
2023/08/20 08:57:35;;;;;;;0.30;0.30;;;;;;;18.48;100.00;100964.13;5028849;28;20033;-60
2023/08/20 09:00:00;;;;;;;0.20;0.20;;;;;;;18.56;100.00;100966.47;5028745;28;20029;-61
2023/08/20 09:02:25;;;;;;;0.20;0.20;;;;;;;18.63;100.00;100962.72;5028569;28;20406;-61
2023/08/20 09:04:52;;;;;;;0.25;0.25;;;;;;;18.74;100.00;100966.78;5028626;28;20025;-61
2023/08/20 09:07:17;;;;;;;0.20;0.20;;;;;;;18.78;100.00;100971.88;5028294;28;20484;-62
2023/08/20 09:09:46;;;;;;;0.20;0.20;;;;;;;18.79;100.00;100964.84;5028248;28;20030;-61
2023/08/20 09:12:19;;;;;;;0.32;0.32;;;;;;;18.84;100.00;100962.91;5028536;28;20117;-61
2023/08/20 09:14:52;;;;;;;2.75;1.63;;;;;;;18.87;100.00;100969.81;5028329;28;20042;-61
2023/08/20 09:17:19;;;;;;;0.20;0.20;;;;;;;18.87;100.00;100973.31;5028757;28;20029;-61
2023/08/20 09:19:45;;;;;;;0.32;0.32;;;;;;;18.85;100.00;100971.66;5028577;28;20028;-61
2023/08/20 09:22:15;;;;;;;0.20;0.20;;;;;;;18.90;100.00;100978.47;5028257;28;20018;-62
2023/08/20 09:24:52;;;;;;;1.45;1.17;;;;;;;18.93;100.00;100980.16;5027903;28;20022;-60
2023/08/20 09:27:17;;;;;;;0.10;0.10;;;;;;;18.89;100.00;100983.78;5028243;28;20029;-60
2023/08/20 09:29:55;;;;;;;0.17;0.17;;;;;;;18.83;100.00;100985.72;5028192;28;20049;-60
2023/08/20 09:32:25;;;;;;;0.73;0.73;;;;;;;18.95;100.00;100988.84;5028034;28;20029;-60
2023/08/20 09:34:52;;;;;;;0.28;0.28;;;;;;;18.91;100.00;100977.56;5028235;28;20052;-61
2023/08/20 09:37:19;;;;;;;0.63;0.47;;;;;;;19.08;100.00;100990.16;5027954;28;20085;-60
2023/08/20 09:39:45;;;;;;;0.20;0.20;;;;;;;19.37;100.00;100991.81;5027873;28;20022;-61
2023/08/20 09:42:11;;;;;;;1.02;0.98;;;;;;;19.54;100.00;100997.34;5027697;28;20037;-60
2023/08/20 09:44:39;;;;;;;0.20;0.20;;;;;;;19.64;100.00;100999.63;5028025;28;20018;-60
2023/08/20 09:47:12;;;;;;;0.25;0.25;;;;;;;19.75;100.00;100993.94;5027666;28;20028;-60
2023/08/20 09:49:42;;;;;;;0.20;0.20;;;;;;;19.77;100.00;100993.00;5027571;28;20107;-61
2023/08/20 09:52:10;;;;;;;0.77;0.77;;;;;;;19.83;100.00;101007.69;5027736;28;20037;-61
2023/08/20 09:54:35;;;;;;;0.32;0.32;;;;;;;19.81;100.00;101010.38;5027608;28;20084;-62
2023/08/20 09:57:02;;;;;;;0.38;0.38;;;;;;;19.79;100.00;101004.31;5027823;28;20030;-62
2023/08/20 09:59:28;;;;;;;0.20;0.20;;;;;;;19.86;100.00;101006.72;5027068;28;20052;-60
2023/08/20 10:01:55;;;;;;;1.42;1.00;;;;;;;19.93;100.00;101014.34;5027176;28;20026;-62
2023/08/20 10:04:21;;;;;;;0.20;0.20;;;;;;;20.02;99.30;101013.16;5026994;28;20086;-61
2023/08/20 10:06:47;;;;;;;0.10;0.10;;;;;;;20.27;100.00;101016.63;5027653;28;20037;-61
2023/08/20 10:09:14;;;;;;;0.10;0.10;;;;;;;20.72;100.00;101006.03;5027231;28;20089;-61
2023/08/20 10:11:40;;;;;;;0.52;0.52;;;;;;;21.08;98.72;101015.09;5027507;28;20032;-61
2023/08/20 10:14:05;;;;;;;1.13;1.00;;;;;;;21.30;99.06;101007.97;5027211;28;20061;-61
2023/08/20 10:16:33;;;;;;;4.72;2.00;;;;;;;21.45;96.02;101005.59;5027049;28;20022;-62
2023/08/20 10:19:05;;;;;;;0.60;0.60;;;;;;;21.62;94.87;101012.72;5026859;28;20169;-62
2023/08/20 10:21:31;;;;;;;0.10;0.10;;;;;;;21.59;93.99;101006.72;5027187;28;20026;-61
2023/08/20 10:23:57;;;;;;;0.98;0.95;;;;;;;21.69;94.51;101013.31;5026667;28;20032;-61
2023/08/20 10:26:24;;;;;;;0.13;0.13;;;;;;;21.61;95.52;101010.16;5026882;28;20038;-61
2023/08/20 10:28:49;;;;;;;0.20;0.20;;;;;;;21.46;94.64;101017.84;5027063;28;20026;-62
2023/08/20 10:31:17;;;;;;;0.20;0.20;;;;;;;21.34;94.42;101013.13;5026832;28;20084;-62
2023/08/20 10:33:49;;;;;;;0.10;0.10;;;;;;;21.16;92.66;101015.63;5026919;28;20029;-62
2023/08/20 10:36:22;;;;;;;0.40;0.40;;;;;;;20.93;93.49;101005.16;5027099;28;20083;-61
2023/08/20 10:38:49;;;;;;;2.65;0.52;;;;;;;20.89;93.02;101014.09;5026824;28;20382;-61
2023/08/20 10:41:16;;;;;;;0.60;0.60;;;;;;;20.86;94.89;101014.22;5026895;28;20049;-61
2023/08/20 10:43:48;;;;;;;0.10;0.10;;;;;;;20.89;95.00;101013.22;5026809;28;20086;-61
2023/08/20 10:46:18;;;;;;;0.20;0.20;;;;;;;21.06;96.81;101015.19;5026965;28;20085;-61
2023/08/20 10:48:52;;;;;;;2.38;1.23;;;;;;;21.28;97.27;101015.09;5026739;28;20026;-61
2023/08/20 10:51:26;;;;;;;0.40;0.40;;;;;;;21.60;98.64;101008.47;5026582;28;20036;-61
2023/08/20 10:54:01;;;;;;;0.10;0.10;;;;;;;21.78;98.82;101012.91;5026276;28;20029;-61
2023/08/20 10:56:40;;;;;;;0.50;0.50;;;;;;;21.87;95.74;101006.34;5026748;28;20025;-61
2023/08/20 10:59:13;;;;;;;0.20;0.20;;;;;;;22.13;95.99;101011.31;5026615;28;20548;-62
2023/08/20 11:01:39;;;;;;;0.17;0.17;;;;;;;22.34;96.58;101012.09;5026691;28;20037;-62
2023/08/20 11:04:07;;;;;;;0.55;0.55;;;;;;;22.69;97.12;101002.50;5026333;28;20022;-62
2023/08/20 11:06:33;;;;;;;0.60;0.55;;;;;;;23.02;97.38;100991.97;5026086;28;20105;-62
2023/08/20 11:08:58;;;;;;;0.68;0.68;;;;;;;23.17;97.23;101004.50;5025803;28;20034;-63
2023/08/20 11:11:25;;;;;;;0.10;0.10;;;;;;;23.71;97.60;101008.75;5026265;28;20429;-64
2023/08/20 11:13:50;;;;;;;0.10;0.10;;;;;;;23.95;95.75;101017.16;5024814;28;20041;-63
2023/08/20 11:16:16;;;;;;;0.10;0.10;;;;;;;24.05;94.34;101019.28;5026286;28;20044;-64